»·PEaware :: N413ES KGCN-KPSP

N413ES :: KGCN-KPSP

FLIGHT INFORMATION

Flight Status: Arrived
Operator: Privately registered:
United States
More flights under this callsign
Pilot: Anonymous 13363 (13363)
Aircraft: PILATUS PC-12 EAGLE
(PC12)
More flights by this aircraft type
Origin: KGCN Grand Canyon Natl Park
United States
Destination: KPSP Palm Springs Intl
United States
More flights between these airports :: More routes between these airports
Route: PARKS4 PGS EED SBONO1
File this flight plan on PilotEdge
Remarks: Twitch.tv / ajonesieee
Altitude:
(Current/Filed)
28,000ft
Speed:
(Current/Filed)
270kts
Departed: 18-Sep-17 07:47 PM
Arrived: 18-Sep-17 09:11 PM
Distance/Time
Traveled:
249nm/1:24
Distance/Time
To Go:
Arrived

Flight Plot

Page will automatically refresh every two minutes.

Flight plan parsing failed; only flown route is shown


Map Options




Map Legend


Flown Route
Filed Route
Departure Airport
Arrival Airport
Navaid (VOR, NDB)
Fix

Horizontal Profiles

Position Reports

Time Latitude Longitude Heading Altitude Ground
Speed
18-Sep-17 19:31 35.961873 -112.134394 220 6607ft 0kts
18-Sep-17 19:32 35.961873 -112.134394 220 6607ft 0kts
18-Sep-17 19:33 35.961873 -112.134394 220 6607ft 0kts
18-Sep-17 19:34 35.961873 -112.134394 220 6607ft 0kts
18-Sep-17 19:35 35.961873 -112.134394 220 6607ft 0kts
18-Sep-17 19:36 35.961873 -112.134394 220 6607ft 0kts
18-Sep-17 19:37 35.961873 -112.134394 220 6607ft 0kts
18-Sep-17 19:38 35.961873 -112.134394 220 6607ft 0kts
18-Sep-17 19:39 35.961873 -112.134394 220 6607ft 0kts
18-Sep-17 19:40 35.961873 -112.134394 220 6607ft 0kts
18-Sep-17 19:41 35.961873 -112.134394 220 6607ft 0kts
18-Sep-17 19:42 35.961873 -112.134394 220 6607ft 0kts
18-Sep-17 19:43 35.961873 -112.134394 220 6607ft 0kts
18-Sep-17 19:44 35.961873 -112.134394 220 6607ft 0kts
18-Sep-17 19:45 35.961873 -112.134394 220 6607ft 0kts
18-Sep-17 19:46 35.961873 -112.134394 220 6607ft 0kts
18-Sep-17 19:47 35.961416 -112.135955 310 6607ft 0kts
18-Sep-17 19:48 35.961416 -112.135955 310 6607ft 0kts
18-Sep-17 19:49 35.961420 -112.135961 309 6607ft 0kts
18-Sep-17 19:50 35.961395 -112.136704 291 6607ft 3kts
18-Sep-17 19:51 35.959349 -112.139521 220 6607ft 72kts
18-Sep-17 19:52 35.940978 -112.161439 224 7752ft 109kts
18-Sep-17 19:53 35.922214 -112.191946 244 9344ft 118kts
18-Sep-17 19:54 35.920585 -112.230833 283 10887ft 124kts
18-Sep-17 19:55 35.928756 -112.271869 278 12426ft 124kts
18-Sep-17 19:56 35.922231 -112.312322 251 13912ft 122kts
18-Sep-17 19:57 35.913273 -112.350080 251 15315ft 120kts
18-Sep-17 19:58 35.903951 -112.386449 254 16882ft 108kts
18-Sep-17 19:59 35.894770 -112.424188 254 18147ft 129kts
18-Sep-17 20:00 35.884421 -112.468374 255 19634ft 141kts
18-Sep-17 20:01 35.873175 -112.515989 255 21052ft 147kts
18-Sep-17 20:02 35.861775 -112.564057 256 22443ft 147kts
18-Sep-17 20:03 35.850399 -112.611996 256 23744ft 146kts
18-Sep-17 20:04 35.839217 -112.659229 256 24942ft 145kts
18-Sep-17 20:05 35.828003 -112.706565 256 26072ft 146kts
18-Sep-17 20:06 35.816421 -112.755271 256 27077ft 150kts
18-Sep-17 20:07 35.804674 -112.804313 256 28029ft 143kts
18-Sep-17 20:08 35.792787 -112.854194 255 28212ft 172kts
18-Sep-17 20:09 35.777562 -112.916645 256 28203ft 204kts
18-Sep-17 20:10 35.754011 -112.982492 236 28191ft 224kts
18-Sep-17 20:11 35.714523 -113.043364 237 28185ft 230kts
18-Sep-17 20:12 35.674470 -113.105353 236 28183ft 234kts
18-Sep-17 20:13 35.633805 -113.167878 236 28182ft 235kts
18-Sep-17 20:14 35.593130 -113.230634 235 28126ft 238kts
18-Sep-17 20:15 35.550882 -113.294636 236 28022ft 241kts
18-Sep-17 20:16 35.509349 -113.358134 236 28018ft 238kts
18-Sep-17 20:17 35.467939 -113.421324 236 28018ft 237kts
18-Sep-17 20:18 35.426615 -113.484217 236 28017ft 236kts
18-Sep-17 20:19 35.385373 -113.546856 236 28017ft 236kts
18-Sep-17 20:20 35.345091 -113.607920 236 28017ft 236kts
18-Sep-17 20:21 35.306985 -113.665570 236 28023ft 236kts
18-Sep-17 20:22 35.265621 -113.728071 236 28024ft 237kts
18-Sep-17 20:23 35.224160 -113.790598 236 28023ft 238kts
18-Sep-17 20:24 35.182376 -113.853490 236 28023ft 238kts
18-Sep-17 20:25 35.140659 -113.916358 235 28018ft 238kts
18-Sep-17 20:26 35.098502 -113.979217 236 28022ft 239kts
18-Sep-17 20:27 35.057317 -114.040961 236 28021ft 239kts
18-Sep-17 20:28 35.015376 -114.103699 236 28021ft 238kts
18-Sep-17 20:29 34.973615 -114.166019 236 28021ft 238kts
18-Sep-17 20:30 34.931801 -114.228299 236 28020ft 238kts
18-Sep-17 20:31 34.890804 -114.289248 235 28020ft 240kts
18-Sep-17 20:32 34.849150 -114.351069 235 28019ft 243kts
18-Sep-17 20:33 34.806430 -114.414337 235 28002ft 245kts
18-Sep-17 20:34 34.762958 -114.478774 236 27865ft 249kts
18-Sep-17 20:35 34.720030 -114.544395 235 27855ft 248kts
18-Sep-17 20:36 34.676639 -114.609250 236 27854ft 247kts
18-Sep-17 20:37 34.638677 -114.666687 235 27860ft 246kts
18-Sep-17 20:38 34.595916 -114.731238 235 27861ft 247kts
18-Sep-17 20:39 34.552735 -114.796256 235 27860ft 247kts
18-Sep-17 20:40 34.516850 -114.850182 235 27860ft 247kts
18-Sep-17 20:41 34.473625 -114.915024 235 27860ft 247kts
18-Sep-17 20:42 34.430440 -114.979686 235 27859ft 247kts
18-Sep-17 20:43 34.379992 -115.055076 235 27859ft 247kts
18-Sep-17 20:44 34.343775 -115.109212 235 27861ft 248kts
18-Sep-17 20:45 34.300354 -115.173636 235 27858ft 247kts
18-Sep-17 20:46 34.256969 -115.238218 235 27858ft 247kts
18-Sep-17 20:47 34.213594 -115.302608 235 27857ft 247kts
18-Sep-17 20:48 34.170247 -115.366820 235 27857ft 247kts
18-Sep-17 20:49 34.129111 -115.427632 235 27914ft 245kts
18-Sep-17 20:50 34.086220 -115.490939 235 27965ft 245kts
18-Sep-17 20:51 34.042976 -115.554673 235 27964ft 246kts
18-Sep-17 20:52 33.999361 -115.618748 235 27964ft 247kts
18-Sep-17 20:53 33.957135 -115.680718 235 27970ft 248kts
18-Sep-17 20:54 33.919785 -115.736377 243 27954ft 246kts
18-Sep-17 20:55 33.907002 -115.816926 240 27037ft 278kts
18-Sep-17 20:56 33.835436 -115.832303 181 24172ft 305kts
18-Sep-17 20:57 33.753079 -115.824474 179 21148ft 296kts
18-Sep-17 20:58 33.699346 -115.749883 121 17922ft 311kts
18-Sep-17 20:59 33.658874 -115.660870 121 14736ft 300kts
18-Sep-17 21:00 33.599014 -115.639088 232 11382ft 258kts
18-Sep-17 21:01 33.563901 -115.710565 241 8206ft 251kts
18-Sep-17 21:02 33.530166 -115.782178 241 6084ft 251kts
18-Sep-17 21:03 33.543457 -115.858613 291 5011ft 228kts
18-Sep-17 21:04 33.565483 -115.926913 291 4744ft 226kts
18-Sep-17 21:05 33.589034 -115.999773 291 4007ft 238kts
18-Sep-17 21:06 33.612483 -116.072288 291 3996ft 233kts
18-Sep-17 21:07 33.635975 -116.144880 291 3998ft 236kts
18-Sep-17 21:08 33.659754 -116.218300 291 3998ft 237kts
18-Sep-17 21:09 33.688282 -116.286096 301 4006ft 235kts
18-Sep-17 21:10 33.717059 -116.346263 301 3482ft 192kts
18-Sep-17 21:11 33.744023 -116.399626 305 2833ft 182kts
18-Sep-17 21:12 33.771285 -116.446468 310 2094ft 157kts
18-Sep-17 21:13 33.799954 -116.476511 324 1446ft 115kts
18-Sep-17 21:14 33.817141 -116.493652 323 745ft 71kts
18-Sep-17 21:15 33.829782 -116.504667 20 480ft 8kts
18-Sep-17 21:16 33.829038 -116.503236 141 480ft 28kts
18-Sep-17 21:17 33.823381 -116.497589 57 480ft 0kts

Navigation Log

Ident Type
Flight plan parsing failed, navigation log unavailable